sensor_id;sensor_type;location;lat;lon;timestamp;temperature;humidity
17346;DHT22;8790;53.590;10.002;2022-09-03T00:01:43;17.40;99.90
17346;DHT22;8790;53.590;10.002;2022-09-03T00:04:24;17.40;99.90
17346;DHT22;8790;53.590;10.002;2022-09-03T00:07:02;17.40;99.90
17346;DHT22;8790;53.590;10.002;2022-09-03T00:09:38;17.30;99.90
17346;DHT22;8790;53.590;10.002;2022-09-03T00:12:14;17.30;99.90
17346;DHT22;8790;53.590;10.002;2022-09-03T00:14:52;17.30;99.90
17346;DHT22;8790;53.590;10.002;2022-09-03T00:17:31;17.30;99.90
17346;DHT22;8790;53.590;10.002;2022-09-03T00:20:09;17.20;99.90
17346;DHT22;8790;53.590;10.002;2022-09-03T00:22:45;17.20;99.90
17346;DHT22;8790;53.590;10.002;2022-09-03T00:25:22;17.20;99.90
17346;DHT22;8790;53.590;10.002;2022-09-03T00:27:56;17.20;99.90
17346;DHT22;8790;53.590;10.002;2022-09-03T00:30:29;17.20;99.90
17346;DHT22;8790;53.590;10.002;2022-09-03T00:33:06;17.20;99.90
17346;DHT22;8790;53.590;10.002;2022-09-03T00:35:43;17.20;99.90
17346;DHT22;8790;53.590;10.002;2022-09-03T00:38:17;17.10;99.90
17346;DHT22;8790;53.590;10.002;2022-09-03T00:40:59;17.10;99.90
17346;DHT22;8790;53.590;10.002;2022-09-03T00:43:56;17.10;99.90
17346;DHT22;8790;53.590;10.002;2022-09-03T00:46:38;17.00;99.90
17346;DHT22;8790;53.590;10.002;2022-09-03T00:49:24;17.00;99.90
17346;DHT22;8790;53.590;10.002;2022-09-03T00:52:05;17.00;99.90
17346;DHT22;8790;53.590;10.002;2022-09-03T00:54:49;16.90;99.90
17346;DHT22;8790;53.590;10.002;2022-09-03T00:57:33;17.00;99.90
17346;DHT22;8790;53.590;10.002;2022-09-03T01:00:10;17.00;99.90
17346;DHT22;8790;53.590;10.002;2022-09-03T01:02:55;16.90;99.90
17346;DHT22;8790;53.590;10.002;2022-09-03T01:05:41;16.90;99.90
17346;DHT22;8790;53.590;10.002;2022-09-03T01:08:29;16.80;99.90
17346;DHT22;8790;53.590;10.002;2022-09-03T01:11:13;16.80;99.90
17346;DHT22;8790;53.590;10.002;2022-09-03T01:13:54;16.90;99.90
17346;DHT22;8790;53.590;10.002;2022-09-03T01:16:33;16.90;99.90
17346;DHT22;8790;53.590;10.002;2022-09-03T01:19:17;16.80;99.90
17346;DHT22;8790;53.590;10.002;2022-09-03T01:22:15;16.70;99.90
17346;DHT22;8790;53.590;10.002;2022-09-03T01:25:02;16.70;99.90
17346;DHT22;8790;53.590;10.002;2022-09-03T01:30:25;16.70;99.90
17346;DHT22;8790;53.590;10.002;2022-09-03T01:33:01;16.70;99.90
17346;DHT22;8790;53.590;10.002;2022-09-03T01:35:41;16.60;99.90
17346;DHT22;8790;53.590;10.002;2022-09-03T01:38:21;16.60;99.90
17346;DHT22;8790;53.590;10.002;2022-09-03T01:41:06;16.60;99.90
17346;DHT22;8790;53.590;10.002;2022-09-03T01:43:58;16.60;99.90
17346;DHT22;8790;53.590;10.002;2022-09-03T01:46:38;16.60;99.90
17346;DHT22;8790;53.590;10.002;2022-09-03T01:49:16;16.60;99.90
17346;DHT22;8790;53.590;10.002;2022-09-03T01:51:57;16.60;99.90
17346;DHT22;8790;53.590;10.002;2022-09-03T01:54:47;16.60;99.90
17346;DHT22;8790;53.590;10.002;2022-09-03T01:57:41;16.60;99.90
17346;DHT22;8790;53.590;10.002;2022-09-03T02:00:18;16.50;99.90
17346;DHT22;8790;53.590;10.002;2022-09-03T02:02:52;16.50;99.90
17346;DHT22;8790;53.590;10.002;2022-09-03T02:05:26;16.50;99.90
17346;DHT22;8790;53.590;10.002;2022-09-03T02:08:00;16.50;99.90
17346;DHT22;8790;53.590;10.002;2022-09-03T02:10:38;16.50;99.90
17346;DHT22;8790;53.590;10.002;2022-09-03T02:13:13;16.50;99.90
17346;DHT22;8790;53.590;10.002;2022-09-03T02:15:48;16.50;99.90
17346;DHT22;8790;53.590;10.002;2022-09-03T02:18:25;16.40;99.90
17346;DHT22;8790;53.590;10.002;2022-09-03T02:20:58;16.40;99.90
17346;DHT22;8790;53.590;10.002;2022-09-03T02:23:31;16.50;99.90
17346;DHT22;8790;53.590;10.002;2022-09-03T02:26:03;16.50;99.90
17346;DHT22;8790;53.590;10.002;2022-09-03T02:28:34;16.40;99.90
17346;DHT22;8790;53.590;10.002;2022-09-03T02:31:06;16.30;99.90
17346;DHT22;8790;53.590;10.002;2022-09-03T02:33:42;16.40;99.90
17346;DHT22;8790;53.590;10.002;2022-09-03T02:36:19;16.40;99.90
17346;DHT22;8790;53.590;10.002;2022-09-03T02:38:52;16.30;99.90
17346;DHT22;8790;53.590;10.002;2022-09-03T02:41:24;16.20;99.90
17346;DHT22;8790;53.590;10.002;2022-09-03T02:44:01;16.30;99.90
17346;DHT22;8790;53.590;10.002;2022-09-03T02:46:38;16.30;99.90
17346;DHT22;8790;53.590;10.002;2022-09-03T02:49:11;16.20;99.90
17346;DHT22;8790;53.590;10.002;2022-09-03T02:51:43;16.20;99.90
17346;DHT22;8790;53.590;10.002;2022-09-03T02:54:15;16.20;99.90
17346;DHT22;8790;53.590;10.002;2022-09-03T02:56:47;16.20;99.90
17346;DHT22;8790;53.590;10.002;2022-09-03T02:59:19;16.20;99.90
17346;DHT22;8790;53.590;10.002;2022-09-03T03:01:52;16.20;99.90
17346;DHT22;8790;53.590;10.002;2022-09-03T03:04:25;16.20;99.90
17346;DHT22;8790;53.590;10.002;2022-09-03T03:06:57;16.20;99.90
17346;DHT22;8790;53.590;10.002;2022-09-03T03:09:40;16.20;99.90
17346;DHT22;8790;53.590;10.002;2022-09-03T03:12:23;16.10;99.90
17346;DHT22;8790;53.590;10.002;2022-09-03T03:14:55;16.20;99.90
17346;DHT22;8790;53.590;10.002;2022-09-03T03:17:27;16.10;99.90
17346;DHT22;8790;53.590;10.002;2022-09-03T03:20:00;16.10;99.90
17346;DHT22;8790;53.590;10.002;2022-09-03T03:22:32;16.10;99.90
17346;DHT22;8790;53.590;10.002;2022-09-03T03:25:05;16.10;99.90
17346;DHT22;8790;53.590;10.002;2022-09-03T03:27:37;16.10;99.90
17346;DHT22;8790;53.590;10.002;2022-09-03T03:30:11;16.10;99.90
17346;DHT22;8790;53.590;10.002;2022-09-03T03:32:43;16.10;99.90
17346;DHT22;8790;53.590;10.002;2022-09-03T03:35:16;16.00;99.90
17346;DHT22;8790;53.590;10.002;2022-09-03T03:37:48;16.00;99.90
17346;DHT22;8790;53.590;10.002;2022-09-03T03:40:20;16.00;99.90
17346;DHT22;8790;53.590;10.002;2022-09-03T03:42:52;16.00;99.90
17346;DHT22;8790;53.590;10.002;2022-09-03T03:45:24;16.00;99.90
17346;DHT22;8790;53.590;10.002;2022-09-03T03:47:57;16.00;99.90
17346;DHT22;8790;53.590;10.002;2022-09-03T03:50:30;16.00;99.90
17346;DHT22;8790;53.590;10.002;2022-09-03T03:53:02;16.00;99.90
17346;DHT22;8790;53.590;10.002;2022-09-03T03:55:34;16.00;99.90
17346;DHT22;8790;53.590;10.002;2022-09-03T03:58:05;15.90;99.90
17346;DHT22;8790;53.590;10.002;2022-09-03T04:00:37;15.90;99.90
17346;DHT22;8790;53.590;10.002;2022-09-03T04:03:09;15.90;99.90
17346;DHT22;8790;53.590;10.002;2022-09-03T04:05:42;15.90;99.90
17346;DHT22;8790;53.590;10.002;2022-09-03T04:08:13;15.80;99.90
17346;DHT22;8790;53.590;10.002;2022-09-03T04:10:45;15.80;99.90
17346;DHT22;8790;53.590;10.002;2022-09-03T04:13:18;15.80;99.90
17346;DHT22;8790;53.590;10.002;2022-09-03T04:15:49;15.80;99.90
17346;DHT22;8790;53.590;10.002;2022-09-03T04:18:21;15.80;99.90
17346;DHT22;8790;53.590;10.002;2022-09-03T04:20:58;15.80;99.90
17346;DHT22;8790;53.590;10.002;2022-09-03T04:23:30;15.80;99.90
17346;DHT22;8790;53.590;10.002;2022-09-03T04:26:02;15.70;99.90
17346;DHT22;8790;53.590;10.002;2022-09-03T04:28:35;15.70;99.90
17346;DHT22;8790;53.590;10.002;2022-09-03T04:31:08;15.70;99.90
17346;DHT22;8790;53.590;10.002;2022-09-03T04:33:41;15.70;99.90
17346;DHT22;8790;53.590;10.002;2022-09-03T04:36:15;15.70;99.90
17346;DHT22;8790;53.590;10.002;2022-09-03T04:38:49;15.70;99.90
17346;DHT22;8790;53.590;10.002;2022-09-03T04:41:22;15.70;99.90
17346;DHT22;8790;53.590;10.002;2022-09-03T04:43:56;15.80;99.90
17346;DHT22;8790;53.590;10.002;2022-09-03T04:46:28;15.80;99.90
17346;DHT22;8790;53.590;10.002;2022-09-03T04:49:02;15.80;99.90
17346;DHT22;8790;53.590;10.002;2022-09-03T04:51:36;15.80;99.90
17346;DHT22;8790;53.590;10.002;2022-09-03T04:54:08;15.80;99.90
17346;DHT22;8790;53.590;10.002;2022-09-03T04:56:40;15.80;99.90
17346;DHT22;8790;53.590;10.002;2022-09-03T04:59:12;15.70;99.90
17346;DHT22;8790;53.590;10.002;2022-09-03T05:01:44;15.70;99.90
17346;DHT22;8790;53.590;10.002;2022-09-03T05:04:15;15.70;99.90
17346;DHT22;8790;53.590;10.002;2022-09-03T05:06:48;15.70;99.90
17346;DHT22;8790;53.590;10.002;2022-09-03T05:09:20;15.60;99.90
17346;DHT22;8790;53.590;10.002;2022-09-03T05:11:52;15.60;99.90
17346;DHT22;8790;53.590;10.002;2022-09-03T05:14:24;15.60;99.90
17346;DHT22;8790;53.590;10.002;2022-09-03T05:16:55;15.60;99.90
17346;DHT22;8790;53.590;10.002;2022-09-03T05:19:27;15.60;99.90
17346;DHT22;8790;53.590;10.002;2022-09-03T05:22:00;15.60;99.90
17346;DHT22;8790;53.590;10.002;2022-09-03T05:24:32;15.60;99.90
17346;DHT22;8790;53.590;10.002;2022-09-03T05:27:03;15.60;99.90
17346;DHT22;8790;53.590;10.002;2022-09-03T05:29:35;15.60;99.90
17346;DHT22;8790;53.590;10.002;2022-09-03T05:32:07;15.60;99.90
17346;DHT22;8790;53.590;10.002;2022-09-03T05:34:38;15.60;99.90
17346;DHT22;8790;53.590;10.002;2022-09-03T05:37:11;15.60;99.90
17346;DHT22;8790;53.590;10.002;2022-09-03T05:39:43;15.60;99.90
17346;DHT22;8790;53.590;10.002;2022-09-03T05:42:15;15.60;99.90
17346;DHT22;8790;53.590;10.002;2022-09-03T05:44:46;15.60;99.90
17346;DHT22;8790;53.590;10.002;2022-09-03T05:47:18;15.60;99.90
17346;DHT22;8790;53.590;10.002;2022-09-03T05:49:50;15.60;99.90
17346;DHT22;8790;53.590;10.002;2022-09-03T05:52:23;15.60;99.90
17346;DHT22;8790;53.590;10.002;2022-09-03T05:54:55;15.70;99.90
17346;DHT22;8790;53.590;10.002;2022-09-03T05:57:26;15.60;99.90
17346;DHT22;8790;53.590;10.002;2022-09-03T05:59:59;15.70;99.90
17346;DHT22;8790;53.590;10.002;2022-09-03T06:02:31;15.70;99.90
17346;DHT22;8790;53.590;10.002;2022-09-03T06:05:03;15.70;99.90
17346;DHT22;8790;53.590;10.002;2022-09-03T06:07:36;15.70;99.90
17346;DHT22;8790;53.590;10.002;2022-09-03T06:10:08;15.70;99.90
17346;DHT22;8790;53.590;10.002;2022-09-03T06:12:42;15.80;99.90
17346;DHT22;8790;53.590;10.002;2022-09-03T06:15:19;15.70;99.90
17346;DHT22;8790;53.590;10.002;2022-09-03T06:17:50;15.80;99.90
17346;DHT22;8790;53.590;10.002;2022-09-03T06:20:22;15.80;99.90
17346;DHT22;8790;53.590;10.002;2022-09-03T06:22:58;15.80;99.90
17346;DHT22;8790;53.590;10.002;2022-09-03T06:25:30;15.80;99.90
17346;DHT22;8790;53.590;10.002;2022-09-03T06:28:02;15.90;99.90
17346;DHT22;8790;53.590;10.002;2022-09-03T06:30:34;15.90;99.90
17346;DHT22;8790;53.590;10.002;2022-09-03T06:33:06;15.90;99.90
17346;DHT22;8790;53.590;10.002;2022-09-03T06:35:37;16.00;99.90
17346;DHT22;8790;53.590;10.002;2022-09-03T06:38:12;16.00;99.90
17346;DHT22;8790;53.590;10.002;2022-09-03T06:40:51;16.10;99.90
17346;DHT22;8790;53.590;10.002;2022-09-03T06:43:23;16.10;99.90
17346;DHT22;8790;53.590;10.002;2022-09-03T06:45:57;16.10;99.90
17346;DHT22;8790;53.590;10.002;2022-09-03T06:48:31;16.10;99.90
17346;DHT22;8790;53.590;10.002;2022-09-03T06:51:04;16.20;99.90
17346;DHT22;8790;53.590;10.002;2022-09-03T06:53:39;16.20;99.90
17346;DHT22;8790;53.590;10.002;2022-09-03T06:56:13;16.20;99.90
17346;DHT22;8790;53.590;10.002;2022-09-03T06:58:46;16.20;99.90
17346;DHT22;8790;53.590;10.002;2022-09-03T07:01:19;16.30;99.90
17346;DHT22;8790;53.590;10.002;2022-09-03T07:03:53;16.30;99.90
17346;DHT22;8790;53.590;10.002;2022-09-03T07:06:28;16.30;99.90
17346;DHT22;8790;53.590;10.002;2022-09-03T07:09:02;16.30;99.90
17346;DHT22;8790;53.590;10.002;2022-09-03T07:11:34;16.30;99.90
17346;DHT22;8790;53.590;10.002;2022-09-03T07:14:06;16.40;99.90
17346;DHT22;8790;53.590;10.002;2022-09-03T07:16:38;16.40;99.90
17346;DHT22;8790;53.590;10.002;2022-09-03T07:19:11;16.40;99.90
17346;DHT22;8790;53.590;10.002;2022-09-03T07:21:44;16.50;99.90
17346;DHT22;8790;53.590;10.002;2022-09-03T07:24:18;16.50;99.90
17346;DHT22;8790;53.590;10.002;2022-09-03T07:26:51;16.60;99.90
17346;DHT22;8790;53.590;10.002;2022-09-03T07:29:24;16.70;99.90
17346;DHT22;8790;53.590;10.002;2022-09-03T07:31:56;16.70;99.90
17346;DHT22;8790;53.590;10.002;2022-09-03T07:34:28;16.80;99.90
17346;DHT22;8790;53.590;10.002;2022-09-03T07:37:00;16.80;99.90
17346;DHT22;8790;53.590;10.002;2022-09-03T07:39:35;17.00;99.90
17346;DHT22;8790;53.590;10.002;2022-09-03T07:42:07;17.00;99.90
17346;DHT22;8790;53.590;10.002;2022-09-03T07:44:40;17.10;99.90
17346;DHT22;8790;53.590;10.002;2022-09-03T07:47:12;17.20;99.90
17346;DHT22;8790;53.590;10.002;2022-09-03T07:49:44;17.30;99.90
17346;DHT22;8790;53.590;10.002;2022-09-03T07:52:16;17.30;99.90
17346;DHT22;8790;53.590;10.002;2022-09-03T07:54:49;17.40;99.90
17346;DHT22;8790;53.590;10.002;2022-09-03T07:57:21;17.40;99.90
17346;DHT22;8790;53.590;10.002;2022-09-03T07:59:53;17.50;99.90
17346;DHT22;8790;53.590;10.002;2022-09-03T08:02:25;17.50;99.90
17346;DHT22;8790;53.590;10.002;2022-09-03T08:04:57;17.60;99.90
17346;DHT22;8790;53.590;10.002;2022-09-03T08:07:30;17.70;99.90
17346;DHT22;8790;53.590;10.002;2022-09-03T08:10:03;17.70;99.90
17346;DHT22;8790;53.590;10.002;2022-09-03T08:12:35;17.80;99.90
17346;DHT22;8790;53.590;10.002;2022-09-03T08:15:07;17.80;99.90
17346;DHT22;8790;53.590;10.002;2022-09-03T08:17:42;17.90;99.90
17346;DHT22;8790;53.590;10.002;2022-09-03T08:20:14;17.90;99.90
17346;DHT22;8790;53.590;10.002;2022-09-03T08:22:46;18.00;99.90
17346;DHT22;8790;53.590;10.002;2022-09-03T08:25:19;18.10;99.90
17346;DHT22;8790;53.590;10.002;2022-09-03T08:27:51;18.10;99.90
17346;DHT22;8790;53.590;10.002;2022-09-03T08:30:23;18.20;99.90
17346;DHT22;8790;53.590;10.002;2022-09-03T08:33:00;18.20;99.90
17346;DHT22;8790;53.590;10.002;2022-09-03T08:35:34;18.20;99.90
17346;DHT22;8790;53.590;10.002;2022-09-03T08:38:07;18.20;99.90
17346;DHT22;8790;53.590;10.002;2022-09-03T08:40:40;18.30;99.90
17346;DHT22;8790;53.590;10.002;2022-09-03T08:43:16;18.30;99.90
17346;DHT22;8790;53.590;10.002;2022-09-03T08:45:49;18.30;99.90
17346;DHT22;8790;53.590;10.002;2022-09-03T08:48:22;18.30;99.90
17346;DHT22;8790;53.590;10.002;2022-09-03T08:50:58;18.30;99.90
17346;DHT22;8790;53.590;10.002;2022-09-03T08:53:39;18.40;99.90
17346;DHT22;8790;53.590;10.002;2022-09-03T08:56:20;18.40;99.90
17346;DHT22;8790;53.590;10.002;2022-09-03T08:58:52;18.40;99.90
17346;DHT22;8790;53.590;10.002;2022-09-03T09:01:30;18.50;99.90
17346;DHT22;8790;53.590;10.002;2022-09-03T09:04:09;18.50;99.90
17346;DHT22;8790;53.590;10.002;2022-09-03T09:06:54;18.50;99.90
17346;DHT22;8790;53.590;10.002;2022-09-03T09:09:31;18.60;99.90
17346;DHT22;8790;53.590;10.002;2022-09-03T09:12:13;18.60;99.90
17346;DHT22;8790;53.590;10.002;2022-09-03T09:14:54;18.60;99.90
17346;DHT22;8790;53.590;10.002;2022-09-03T09:17:40;18.60;99.90
17346;DHT22;8790;53.590;10.002;2022-09-03T09:20:22;18.70;99.90
17346;DHT22;8790;53.590;10.002;2022-09-03T09:23:00;18.70;99.90
17346;DHT22;8790;53.590;10.002;2022-09-03T09:25:38;18.70;99.90
17346;DHT22;8790;53.590;10.002;2022-09-03T09:28:18;18.80;99.90
17346;DHT22;8790;53.590;10.002;2022-09-03T09:30:53;18.80;99.90
17346;DHT22;8790;53.590;10.002;2022-09-03T09:33:25;18.90;99.90
17346;DHT22;8790;53.590;10.002;2022-09-03T09:36:02;18.90;99.90
17346;DHT22;8790;53.590;10.002;2022-09-03T09:38:37;19.00;99.90
17346;DHT22;8790;53.590;10.002;2022-09-03T09:41:10;19.00;99.90
17346;DHT22;8790;53.590;10.002;2022-09-03T09:43:44;19.00;99.90
17346;DHT22;8790;53.590;10.002;2022-09-03T09:46:21;19.00;99.90
17346;DHT22;8790;53.590;10.002;2022-09-03T09:48:55;19.00;99.90
17346;DHT22;8790;53.590;10.002;2022-09-03T09:51:28;19.10;99.90
17346;DHT22;8790;53.590;10.002;2022-09-03T09:54:02;19.20;99.90
17346;DHT22;8790;53.590;10.002;2022-09-03T09:56:34;19.20;99.90
17346;DHT22;8790;53.590;10.002;2022-09-03T09:59:08;19.30;99.90
17346;DHT22;8790;53.590;10.002;2022-09-03T10:01:42;19.30;99.90
17346;DHT22;8790;53.590;10.002;2022-09-03T10:04:22;19.30;99.90
17346;DHT22;8790;53.590;10.002;2022-09-03T10:06:55;19.30;99.90
17346;DHT22;8790;53.590;10.002;2022-09-03T10:09:28;19.50;99.40
17346;DHT22;8790;53.590;10.002;2022-09-03T10:12:07;19.50;98.80
17346;DHT22;8790;53.590;10.002;2022-09-03T10:14:49;19.50;99.00
17346;DHT22;8790;53.590;10.002;2022-09-03T10:17:28;19.50;99.00
17346;DHT22;8790;53.590;10.002;2022-09-03T10:20:06;19.50;98.30
17346;DHT22;8790;53.590;10.002;2022-09-03T10:23:05;19.50;98.50
17346;DHT22;8790;53.590;10.002;2022-09-03T10:25:44;19.50;98.20
17346;DHT22;8790;53.590;10.002;2022-09-03T10:28:25;19.50;98.60
17346;DHT22;8790;53.590;10.002;2022-09-03T10:31:24;19.50;98.50
17346;DHT22;8790;53.590;10.002;2022-09-03T10:34:07;19.50;98.70
17346;DHT22;8790;53.590;10.002;2022-09-03T10:36:46;19.50;98.00
17346;DHT22;8790;53.590;10.002;2022-09-03T10:39:22;19.50;98.20
17346;DHT22;8790;53.590;10.002;2022-09-03T10:42:05;19.50;98.40
17346;DHT22;8790;53.590;10.002;2022-09-03T10:44:53;19.60;98.40
17346;DHT22;8790;53.590;10.002;2022-09-03T10:47:41;19.60;98.40
17346;DHT22;8790;53.590;10.002;2022-09-03T10:50:18;19.60;98.30
17346;DHT22;8790;53.590;10.002;2022-09-03T10:53:05;19.60;97.80
17346;DHT22;8790;53.590;10.002;2022-09-03T10:55:45;19.70;97.10
17346;DHT22;8790;53.590;10.002;2022-09-03T10:58:31;19.70;97.50
17346;DHT22;8790;53.590;10.002;2022-09-03T11:01:15;19.80;97.90
17346;DHT22;8790;53.590;10.002;2022-09-03T11:04:02;19.90;97.90
17346;DHT22;8790;53.590;10.002;2022-09-03T11:06:42;19.90;97.70
17346;DHT22;8790;53.590;10.002;2022-09-03T11:09:20;19.90;97.20
17346;DHT22;8790;53.590;10.002;2022-09-03T11:11:57;20.00;97.40
17346;DHT22;8790;53.590;10.002;2022-09-03T11:14:34;19.90;97.90
17346;DHT22;8790;53.590;10.002;2022-09-03T11:17:11;20.00;98.10
17346;DHT22;8790;53.590;10.002;2022-09-03T11:19:49;20.00;97.40
17346;DHT22;8790;53.590;10.002;2022-09-03T11:22:22;20.00;97.00
17346;DHT22;8790;53.590;10.002;2022-09-03T11:24:57;20.10;96.50
17346;DHT22;8790;53.590;10.002;2022-09-03T11:27:41;20.20;95.70
17346;DHT22;8790;53.590;10.002;2022-09-03T11:30:23;20.10;95.80
17346;DHT22;8790;53.590;10.002;2022-09-03T11:32:59;20.20;95.30
17346;DHT22;8790;53.590;10.002;2022-09-03T11:35:39;20.20;95.60
17346;DHT22;8790;53.590;10.002;2022-09-03T11:38:20;20.20;95.70
17346;DHT22;8790;53.590;10.002;2022-09-03T11:40:59;20.20;96.00
17346;DHT22;8790;53.590;10.002;2022-09-03T11:43:32;20.20;96.30
17346;DHT22;8790;53.590;10.002;2022-09-03T11:46:27;20.20;96.00
17346;DHT22;8790;53.590;10.002;2022-09-03T11:49:10;20.20;96.00
17346;DHT22;8790;53.590;10.002;2022-09-03T11:51:42;20.20;95.80
17346;DHT22;8790;53.590;10.002;2022-09-03T11:54:24;20.30;95.20
17346;DHT22;8790;53.590;10.002;2022-09-03T11:57:06;20.30;95.50
17346;DHT22;8790;53.590;10.002;2022-09-03T11:59:42;20.40;95.40
17346;DHT22;8790;53.590;10.002;2022-09-03T12:02:23;20.40;95.20
17346;DHT22;8790;53.590;10.002;2022-09-03T12:05:15;20.40;95.10
17346;DHT22;8790;53.590;10.002;2022-09-03T12:08:17;20.30;95.40
17346;DHT22;8790;53.590;10.002;2022-09-03T12:10:55;20.30;95.00
17346;DHT22;8790;53.590;10.002;2022-09-03T12:13:47;20.30;95.40
17346;DHT22;8790;53.590;10.002;2022-09-03T12:19:26;20.30;95.50
17346;DHT22;8790;53.590;10.002;2022-09-03T12:21:59;20.30;95.30
17346;DHT22;8790;53.590;10.002;2022-09-03T12:24:34;20.40;95.50
17346;DHT22;8790;53.590;10.002;2022-09-03T12:27:08;20.40;95.50
17346;DHT22;8790;53.590;10.002;2022-09-03T12:29:50;20.50;95.60
17346;DHT22;8790;53.590;10.002;2022-09-03T12:32:30;20.50;95.70
17346;DHT22;8790;53.590;10.002;2022-09-03T12:35:12;20.50;95.50
17346;DHT22;8790;53.590;10.002;2022-09-03T12:37:44;20.50;95.70
17346;DHT22;8790;53.590;10.002;2022-09-03T12:40:18;20.60;95.50
17346;DHT22;8790;53.590;10.002;2022-09-03T12:42:51;20.50;95.50
17346;DHT22;8790;53.590;10.002;2022-09-03T12:45:24;20.60;95.00
17346;DHT22;8790;53.590;10.002;2022-09-03T12:47:57;20.60;94.90
17346;DHT22;8790;53.590;10.002;2022-09-03T12:50:30;20.60;94.70
17346;DHT22;8790;53.590;10.002;2022-09-03T12:53:02;20.60;94.50
17346;DHT22;8790;53.590;10.002;2022-09-03T12:55:36;20.60;94.40
17346;DHT22;8790;53.590;10.002;2022-09-03T12:58:12;20.70;94.80
17346;DHT22;8790;53.590;10.002;2022-09-03T13:00:49;20.70;94.50
17346;DHT22;8790;53.590;10.002;2022-09-03T13:03:26;20.70;95.10
17346;DHT22;8790;53.590;10.002;2022-09-03T13:06:05;20.70;94.20
17346;DHT22;8790;53.590;10.002;2022-09-03T13:08:43;20.70;94.50
17346;DHT22;8790;53.590;10.002;2022-09-03T13:11:18;20.70;94.30
17346;DHT22;8790;53.590;10.002;2022-09-03T13:13:53;20.70;94.80
17346;DHT22;8790;53.590;10.002;2022-09-03T13:16:50;20.80;94.00
17346;DHT22;8790;53.590;10.002;2022-09-03T13:19:30;20.70;94.50
17346;DHT22;8790;53.590;10.002;2022-09-03T13:22:13;20.80;94.20
17346;DHT22;8790;53.590;10.002;2022-09-03T13:25:01;20.80;94.00
17346;DHT22;8790;53.590;10.002;2022-09-03T13:27:38;20.80;94.70
17346;DHT22;8790;53.590;10.002;2022-09-03T13:30:14;21.00;94.70
17346;DHT22;8790;53.590;10.002;2022-09-03T13:32:55;21.00;94.20
17346;DHT22;8790;53.590;10.002;2022-09-03T13:35:35;21.00;94.60
17346;DHT22;8790;53.590;10.002;2022-09-03T13:38:18;20.90;94.50
17346;DHT22;8790;53.590;10.002;2022-09-03T13:40:54;21.00;94.20
17346;DHT22;8790;53.590;10.002;2022-09-03T13:43:32;21.10;94.40
17346;DHT22;8790;53.590;10.002;2022-09-03T13:46:08;21.10;94.10
17346;DHT22;8790;53.590;10.002;2022-09-03T13:48:44;21.10;94.30
17346;DHT22;8790;53.590;10.002;2022-09-03T13:51:43;21.20;94.20
17346;DHT22;8790;53.590;10.002;2022-09-03T13:54:23;21.20;93.90
17346;DHT22;8790;53.590;10.002;2022-09-03T13:56:59;21.20;93.60
17346;DHT22;8790;53.590;10.002;2022-09-03T13:59:38;21.20;93.60
17346;DHT22;8790;53.590;10.002;2022-09-03T14:02:21;21.20;93.90
17346;DHT22;8790;53.590;10.002;2022-09-03T14:05:04;21.20;94.20
17346;DHT22;8790;53.590;10.002;2022-09-03T14:07:46;21.20;94.00
17346;DHT22;8790;53.590;10.002;2022-09-03T14:10:29;21.20;94.00
17346;DHT22;8790;53.590;10.002;2022-09-03T14:13:11;21.30;93.90
17346;DHT22;8790;53.590;10.002;2022-09-03T14:15:48;21.30;93.50
17346;DHT22;8790;53.590;10.002;2022-09-03T14:18:34;21.40;93.00
17346;DHT22;8790;53.590;10.002;2022-09-03T14:21:12;21.40;93.10
17346;DHT22;8790;53.590;10.002;2022-09-03T14:23:49;21.40;93.40
17346;DHT22;8790;53.590;10.002;2022-09-03T14:26:26;21.50;93.60
17346;DHT22;8790;53.590;10.002;2022-09-03T14:29:02;21.60;93.50
17346;DHT22;8790;53.590;10.002;2022-09-03T14:34:54;21.70;93.50
17346;DHT22;8790;53.590;10.002;2022-09-03T14:37:48;21.80;93.50
17346;DHT22;8790;53.590;10.002;2022-09-03T14:40:24;21.80;93.60
17346;DHT22;8790;53.590;10.002;2022-09-03T14:43:14;22.00;93.30
17346;DHT22;8790;53.590;10.002;2022-09-03T14:49:01;22.20;92.10
17346;DHT22;8790;53.590;10.002;2022-09-03T14:51:48;22.40;92.10
17346;DHT22;8790;53.590;10.002;2022-09-03T14:54:33;22.70;91.90
17346;DHT22;8790;53.590;10.002;2022-09-03T14:57:27;22.90;91.90
17346;DHT22;8790;53.590;10.002;2022-09-03T15:00:06;23.10;91.70
17346;DHT22;8790;53.590;10.002;2022-09-03T15:02:53;23.40;92.40
17346;DHT22;8790;53.590;10.002;2022-09-03T15:05:41;23.50;93.20
17346;DHT22;8790;53.590;10.002;2022-09-03T15:08:22;23.60;90.90
17346;DHT22;8790;53.590;10.002;2022-09-03T15:10:59;23.60;91.00
17346;DHT22;8790;53.590;10.002;2022-09-03T15:13:34;23.60;90.60
17346;DHT22;8790;53.590;10.002;2022-09-03T15:16:27;23.50;91.50
17346;DHT22;8790;53.590;10.002;2022-09-03T15:19:10;23.60;91.00
17346;DHT22;8790;53.590;10.002;2022-09-03T15:21:54;23.50;90.90
17346;DHT22;8790;53.590;10.002;2022-09-03T15:24:39;23.60;90.90
17346;DHT22;8790;53.590;10.002;2022-09-03T15:27:28;23.60;92.70
17346;DHT22;8790;53.590;10.002;2022-09-03T15:30:05;23.60;90.80
17346;DHT22;8790;53.590;10.002;2022-09-03T15:32:47;23.50;91.00
17346;DHT22;8790;53.590;10.002;2022-09-03T15:35:35;23.40;90.80
17346;DHT22;8790;53.590;10.002;2022-09-03T15:38:10;23.30;91.30
17346;DHT22;8790;53.590;10.002;2022-09-03T15:40:50;23.20;91.00
17346;DHT22;8790;53.590;10.002;2022-09-03T15:43:25;23.10;91.20
17346;DHT22;8790;53.590;10.002;2022-09-03T15:46:00;23.10;91.20
17346;DHT22;8790;53.590;10.002;2022-09-03T15:48:46;22.90;91.30
17346;DHT22;8790;53.590;10.002;2022-09-03T15:51:24;22.80;92.20
17346;DHT22;8790;53.590;10.002;2022-09-03T15:54:00;22.80;91.60
17346;DHT22;8790;53.590;10.002;2022-09-03T15:56:40;22.70;92.30
17346;DHT22;8790;53.590;10.002;2022-09-03T15:59:19;22.70;93.20
17346;DHT22;8790;53.590;10.002;2022-09-03T16:01:56;22.60;91.80
17346;DHT22;8790;53.590;10.002;2022-09-03T16:04:41;22.50;91.60
17346;DHT22;8790;53.590;10.002;2022-09-03T16:07:20;22.50;92.00
17346;DHT22;8790;53.590;10.002;2022-09-03T16:10:03;22.40;92.10
17346;DHT22;8790;53.590;10.002;2022-09-03T16:12:46;22.40;92.00
17346;DHT22;8790;53.590;10.002;2022-09-03T16:15:21;22.30;91.80
17346;DHT22;8790;53.590;10.002;2022-09-03T16:17:59;22.20;92.60
17346;DHT22;8790;53.590;10.002;2022-09-03T16:20:37;22.20;92.50
17346;DHT22;8790;53.590;10.002;2022-09-03T16:23:15;22.20;91.70
17346;DHT22;8790;53.590;10.002;2022-09-03T16:25:55;22.10;92.30
17346;DHT22;8790;53.590;10.002;2022-09-03T16:28:34;22.10;92.60
17346;DHT22;8790;53.590;10.002;2022-09-03T16:31:14;22.00;91.70
17346;DHT22;8790;53.590;10.002;2022-09-03T16:33:53;21.90;91.90
17346;DHT22;8790;53.590;10.002;2022-09-03T16:36:38;21.80;92.10
17346;DHT22;8790;53.590;10.002;2022-09-03T16:39:23;21.80;92.30
17346;DHT22;8790;53.590;10.002;2022-09-03T16:42:03;21.70;92.00
17346;DHT22;8790;53.590;10.002;2022-09-03T16:44:45;21.70;92.10